Time;durP1;ratioP1;P1;durP2;ratioP2;P2;SDS_P1;SDS_P2;PMS_P1;PMS_P2;Temp;Humidity;BMP_temperature;BMP_pressure;BME280_temperature;BME280_humidity;BME280_pressure;Samples;Min_cycle;Max_cycle;Signal;HPM_P1;HPM_P2
2023/02/27 00:02:26;;;;;;;6.93;4.20;;;1.70;99.90;;;;;;5023824;28;20198;-76
2023/02/27 00:04:53;;;;;;;6.23;4.00;;;1.70;99.90;;;;;;5024780;28;20216;-76
2023/02/27 00:07:24;;;;;;;5.83;3.83;;;1.70;99.90;;;;;;5024101;28;20322;-75
2023/02/27 00:09:53;;;;;;;7.10;4.20;;;1.60;99.90;;;;;;5023586;28;20194;-76
2023/02/27 00:12:19;;;;;;;5.50;3.67;;;1.60;99.90;;;;;;5024837;28;20262;-77
2023/02/27 00:14:46;;;;;;;5.00;3.60;;;1.50;99.90;;;;;;5041182;28;20209;-77
2023/02/27 00:17:13;;;;;;;8.00;4.13;;;1.50;99.90;;;;;;5043142;28;20237;-76
2023/02/27 00:19:40;;;;;;;7.57;4.47;;;1.50;99.90;;;;;;5037597;28;20905;-76
2023/02/27 00:22:07;;;;;;;6.20;4.27;;;1.40;99.90;;;;;;5022820;28;20790;-77
2023/02/27 00:24:34;;;;;;;5.87;3.23;;;1.40;99.90;;;;;;5023387;28;20199;-77
2023/02/27 00:27:02;;;;;;;4.97;3.50;;;1.40;99.90;;;;;;5023743;28;20209;-76
2023/02/27 00:29:29;;;;;;;4.70;3.43;;;1.30;99.90;;;;;;5023641;28;20206;-76
2023/02/27 00:31:56;;;;;;;5.00;3.47;;;1.30;99.90;;;;;;5024499;28;20321;-76
2023/02/27 00:34:23;;;;;;;5.03;3.60;;;1.30;99.90;;;;;;5023417;28;20301;-76
2023/02/27 00:36:50;;;;;;;3.63;2.90;;;1.30;99.90;;;;;;5023783;28;20595;-76
2023/02/27 00:39:16;;;;;;;6.37;3.33;;;1.20;99.90;;;;;;5024230;28;21030;-76
2023/02/27 00:41:43;;;;;;;6.43;3.70;;;1.20;99.90;;;;;;5023364;28;20213;-76
2023/02/27 00:44:12;;;;;;;11.10;3.73;;;1.20;99.90;;;;;;5022394;28;20198;-77
2023/02/27 00:46:38;;;;;;;7.07;5.00;;;1.10;99.90;;;;;;5023905;28;20203;-76
2023/02/27 00:49:05;;;;;;;4.93;3.30;;;1.10;99.90;;;;;;5023295;28;20353;-78
2023/02/27 00:51:32;;;;;;;5.30;3.13;;;1.10;99.90;;;;;;5023466;28;20222;-76
2023/02/27 00:53:59;;;;;;;5.90;3.03;;;1.10;99.90;;;;;;5023225;28;20210;-77
2023/02/27 00:56:26;;;;;;;4.60;3.17;;;1.10;99.90;;;;;;5023355;28;20280;-77
2023/02/27 00:58:53;;;;;;;6.60;3.03;;;1.00;99.90;;;;;;5022352;28;20232;-76
2023/02/27 01:01:21;;;;;;;5.00;3.43;;;1.00;99.90;;;;;;5022887;28;20210;-76
2023/02/27 01:03:48;;;;;;;4.60;3.00;;;1.00;99.90;;;;;;5023116;28;20205;-76
2023/02/27 01:06:15;;;;;;;4.67;2.80;;;1.00;99.90;;;;;;5023197;28;20198;-76
2023/02/27 01:08:42;;;;;;;4.27;2.70;;;1.00;99.90;;;;;;5043508;28;20202;-76
2023/02/27 01:11:09;;;;;;;4.97;3.10;;;1.00;99.90;;;;;;5042729;28;20217;-75
2023/02/27 01:13:35;;;;;;;6.00;3.17;;;0.90;99.90;;;;;;5043214;28;20289;-77
2023/02/27 01:16:02;;;;;;;7.17;3.50;;;0.90;99.90;;;;;;5037767;28;20618;-77
2023/02/27 01:18:31;;;;;;;5.07;3.20;;;0.90;99.90;;;;;;5021796;28;20217;-75
2023/02/27 01:20:58;;;;;;;4.63;3.37;;;0.90;99.90;;;;;;5022629;28;20260;-75
2023/02/27 01:23:24;;;;;;;5.10;3.63;;;0.90;99.90;;;;;;5023370;28;20294;-76
2023/02/27 01:25:52;;;;;;;5.10;2.83;;;0.80;99.90;;;;;;5022338;28;20199;-76
2023/02/27 01:28:19;;;;;;;4.30;2.67;;;0.80;99.90;;;;;;5034441;28;20198;-75
2023/02/27 01:30:45;;;;;;;5.90;2.87;;;0.80;99.90;;;;;;5025942;28;20537;-76
2023/02/27 01:33:12;;;;;;;5.77;3.87;;;0.80;99.90;;;;;;5021688;28;20599;-77
2023/02/27 01:35:41;;;;;;;3.97;3.20;;;0.80;99.90;;;;;;5022707;28;20701;-77
2023/02/27 01:38:08;;;;;;;6.73;3.37;;;0.70;99.90;;;;;;5022753;28;20202;-77
2023/02/27 01:40:36;;;;;;;7.50;3.43;;;0.70;99.90;;;;;;5022991;28;20301;-75
2023/02/27 01:43:03;;;;;;;5.90;2.77;;;0.70;99.90;;;;;;5022648;28;20195;-75
2023/02/27 01:45:33;;;;;;;4.87;3.03;;;0.70;99.90;;;;;;5023227;28;20228;-75
2023/02/27 01:48:16;;;;;;;5.77;3.03;;;0.60;99.90;;;;;;5022809;28;20191;-76
2023/02/27 01:50:49;;;;;;;4.97;2.77;;;0.60;99.90;;;;;;5022650;28;20238;-75
2023/02/27 01:53:17;;;;;;;6.43;3.37;;;0.60;99.90;;;;;;5023189;28;20534;-76
2023/02/27 01:55:45;;;;;;;4.50;2.77;;;0.50;99.90;;;;;;5022198;28;20206;-77
2023/02/27 01:58:13;;;;;;;5.27;2.80;;;0.50;99.90;;;;;;5022341;28;20230;-75
2023/02/27 02:00:40;;;;;;;4.53;2.87;;;0.50;99.90;;;;;;5022599;28;20198;-76
2023/02/27 02:03:15;;;;;;;8.60;3.80;;;0.50;99.90;;;;;;5022379;28;20208;-75
2023/02/27 02:05:43;;;;;;;5.83;3.13;;;0.40;99.90;;;;;;5022106;28;20632;-76
2023/02/27 02:08:15;;;;;;;3.73;2.67;;;0.40;99.90;;;;;;5021777;28;20447;-78
2023/02/27 02:10:42;;;;;;;4.67;2.57;;;0.40;99.90;;;;;;5022080;28;20198;-78
2023/02/27 02:13:10;;;;;;;3.20;2.27;;;0.40;99.90;;;;;;5021698;28;20579;-77
2023/02/27 02:15:39;;;;;;;4.73;3.33;;;0.30;99.90;;;;;;5021768;28;20610;-78
2023/02/27 02:18:18;;;;;;;4.53;2.63;;;0.30;99.90;;;;;;5022397;28;20206;-75
2023/02/27 02:21:22;;;;;;;6.33;2.50;;;0.30;99.90;;;;;;5022492;28;20273;-76
2023/02/27 02:24:12;;;;;;;3.40;2.53;;;0.20;99.90;;;;;;5021944;28;20194;-76
2023/02/27 02:26:53;;;;;;;3.47;2.30;;;0.20;99.90;;;;;;5023013;28;20218;-75
2023/02/27 02:30:02;;;;;;;3.50;2.63;;;0.20;99.90;;;;;;5022017;28;20505;-76
2023/02/27 02:33:08;;;;;;;2.67;2.27;;;0.20;99.90;;;;;;5022465;28;20297;-76
2023/02/27 02:36:10;;;;;;;4.97;3.07;;;0.20;99.90;;;;;;5002128;28;20259;-76
2023/02/27 02:39:11;;;;;;;4.13;2.20;;;0.10;99.90;;;;;;5041938;28;20247;-76
2023/02/27 02:41:52;;;;;;;3.27;2.67;;;0.10;99.90;;;;;;5042499;28;20602;-76
2023/02/27 02:44:28;;;;;;;5.70;2.60;;;0.00;99.90;;;;;;5040939;28;20940;-76
2023/02/27 02:47:03;;;;;;;2.93;2.40;;;0.00;99.90;;;;;;5041912;28;20277;-75
2023/02/27 02:49:36;;;;;;;3.97;2.40;;;-0.10;99.90;;;;;;5041492;28;20727;-76
2023/02/27 02:52:09;;;;;;;4.13;2.30;;;-0.10;99.90;;;;;;5030646;28;20210;-74
2023/02/27 02:54:44;;;;;;;5.67;3.90;;;-0.10;99.90;;;;;;5022128;28;20861;-75
2023/02/27 02:57:16;;;;;;;3.73;2.30;;;-0.20;99.90;;;;;;5021490;28;20225;-76
2023/02/27 02:59:48;;;;;;;4.63;2.70;;;-0.10;99.90;;;;;;5022198;28;20317;-74
2023/02/27 03:02:19;;;;;;;4.87;2.67;;;-0.10;99.90;;;;;;5021940;28;20662;-76
2023/02/27 03:04:52;;;;;;;5.23;2.60;;;-0.20;99.90;;;;;;5021257;28;20209;-76
2023/02/27 03:07:24;;;;;;;3.40;2.50;;;-0.20;99.90;;;;;;5021575;28;20206;-74
2023/02/27 03:09:57;;;;;;;3.43;1.73;;;-0.20;99.90;;;;;;5021144;28;20269;-77
2023/02/27 03:12:26;;;;;;;3.10;2.40;;;-0.20;99.90;;;;;;5021247;28;20214;-76
2023/02/27 03:14:59;;;;;;;4.60;2.50;;;-0.30;99.90;;;;;;5021981;28;20206;-75
2023/02/27 03:17:33;;;;;;;4.87;2.40;;;-0.30;99.90;;;;;;5025290;28;20212;-75
2023/02/27 03:20:06;;;;;;;3.20;1.93;;;-0.30;99.90;;;;;;5024597;28;20826;-74
2023/02/27 03:22:38;;;;;;;4.70;2.43;;;-0.30;99.90;;;;;;5025658;28;20202;-76
2023/02/27 03:25:09;;;;;;;4.00;3.20;;;-0.30;99.90;;;;;;5024204;28;20745;-75
2023/02/27 03:27:42;;;;;;;4.50;3.17;;;-0.30;99.90;;;;;;5025574;28;20201;-78
2023/02/27 03:30:12;;;;;;;3.33;2.07;;;-0.30;99.90;;;;;;5025400;28;20217;-76
2023/02/27 03:32:48;;;;;;;3.70;2.40;;;-0.30;99.90;;;;;;5024815;28;20799;-75
2023/02/27 03:35:15;;;;;;;3.43;2.13;;;-0.30;99.90;;;;;;5025640;28;20580;-75
2023/02/27 03:37:56;;;;;;;3.23;2.30;;;-0.40;99.90;;;;;;5024667;28;20674;-75
2023/02/27 03:40:31;;;;;;;4.17;2.20;;;-0.40;99.90;;;;;;5024159;28;20881;-76
2023/02/27 03:43:07;;;;;;;2.67;1.70;;;-0.40;99.90;;;;;;5024721;28;20203;-77
2023/02/27 03:45:40;;;;;;;3.37;1.93;;;-0.40;99.90;;;;;;5024583;28;20216;-74
2023/02/27 03:48:08;;;;;;;3.53;2.10;;;-0.40;99.90;;;;;;5024539;28;20203;-76
2023/02/27 03:50:36;;;;;;;2.77;2.20;;;-0.50;99.90;;;;;;5024302;28;20642;-73
2023/02/27 03:53:06;;;;;;;4.40;2.47;;;-0.50;99.90;;;;;;5023737;28;20233;-74
2023/02/27 03:55:38;;;;;;;4.33;2.00;;;-0.50;99.90;;;;;;5025384;28;20213;-75
2023/02/27 03:58:06;;;;;;;2.50;1.80;;;-0.60;99.90;;;;;;5025265;28;20244;-74
2023/02/27 04:00:33;;;;;;;2.93;2.10;;;-0.60;99.90;;;;;;5024552;28;20219;-75
2023/02/27 04:03:01;;;;;;;4.27;1.87;;;-0.60;99.90;;;;;;5024388;28;20207;-76
2023/02/27 04:05:29;;;;;;;5.27;1.90;;;-0.60;99.90;;;;;;5025258;28;20207;-75
2023/02/27 04:08:24;;;;;;;3.47;2.07;;;-0.70;99.90;;;;;;5023996;28;20210;-74
2023/02/27 04:11:07;;;;;;;2.90;1.80;;;-0.70;99.90;;;;;;5024163;28;20240;-75
2023/02/27 04:13:54;;;;;;;4.23;2.63;;;-0.70;99.90;;;;;;5025204;28;20214;-76
2023/02/27 04:16:40;;;;;;;4.87;2.30;;;-0.70;99.90;;;;;;5024235;28;20201;-74
2023/02/27 04:19:29;;;;;;;3.77;2.00;;;-0.80;99.90;;;;;;5023737;28;20317;-76
2023/02/27 04:22:08;;;;;;;2.50;2.00;;;-0.70;99.90;;;;;;5022553;28;20201;-75
2023/02/27 04:24:39;;;;;;;4.43;2.03;;;-0.70;99.90;;;;;;5023763;28;20248;-75
2023/02/27 04:27:18;;;;;;;2.37;1.90;;;-0.80;99.90;;;;;;5022889;28;20208;-77
2023/02/27 04:29:53;;;;;;;5.73;2.43;;;-0.80;99.90;;;;;;5026973;28;20202;-77
2023/02/27 04:32:26;;;;;;;4.23;2.20;;;-0.80;99.90;;;;;;5044031;28;20210;-77
2023/02/27 04:34:58;;;;;;;2.77;2.17;;;-0.80;99.90;;;;;;5044186;28;20200;-75
2023/02/27 04:37:29;;;;;;;3.03;2.00;;;-0.80;99.90;;;;;;5036806;28;20314;-76
2023/02/27 04:40:04;;;;;;;5.43;2.07;;;-0.80;99.90;;;;;;5024049;28;20197;-75
2023/02/27 04:42:35;;;;;;;3.17;2.07;;;-0.80;99.90;;;;;;5023413;28;20277;-75
2023/02/27 04:45:08;;;;;;;4.50;2.10;;;-0.80;99.90;;;;;;5023806;28;20207;-76
2023/02/27 04:47:47;;;;;;;4.00;2.07;;;-0.90;99.90;;;;;;5023404;28;20317;-76
2023/02/27 04:50:19;;;;;;;3.20;1.73;;;-0.90;99.90;;;;;;5022196;28;20242;-75
2023/02/27 04:52:52;;;;;;;3.97;1.93;;;-0.90;99.90;;;;;;5023417;28;20226;-74
2023/02/27 04:55:23;;;;;;;4.40;2.43;;;-0.90;99.90;;;;;;5023407;28;20293;-76
2023/02/27 04:57:54;;;;;;;3.30;2.27;;;-0.90;99.90;;;;;;5023149;28;20222;-75
2023/02/27 05:00:24;;;;;;;3.33;2.20;;;-0.90;99.90;;;;;;5023790;28;20202;-76
2023/02/27 05:02:56;;;;;;;7.77;2.37;;;-1.00;99.90;;;;;;5023864;28;20547;-75
2023/02/27 05:05:26;;;;;;;4.30;2.10;;;-1.00;99.90;;;;;;5023134;28;20313;-75
2023/02/27 05:07:59;;;;;;;5.30;2.20;;;-1.00;99.90;;;;;;5023301;28;20230;-75
2023/02/27 05:10:32;;;;;;;6.30;2.00;;;-1.00;99.90;;;;;;5022961;28;20233;-74
2023/02/27 05:13:06;;;;;;;3.17;1.80;;;-1.00;99.90;;;;;;5023318;28;20211;-76
2023/02/27 05:15:39;;;;;;;5.17;1.90;;;-1.00;99.90;;;;;;5023619;28;20633;-75
2023/02/27 05:18:08;;;;;;;2.83;1.53;;;-1.00;99.90;;;;;;5022274;28;20767;-75
2023/02/27 05:20:46;;;;;;;3.50;2.07;;;-1.00;99.90;;;;;;5023392;28;20297;-75
2023/02/27 05:23:20;;;;;;;4.00;1.87;;;-1.00;99.90;;;;;;5022841;28;20304;-75
2023/02/27 05:25:54;;;;;;;4.60;1.80;;;-1.10;99.90;;;;;;5022631;28;20236;-75
2023/02/27 05:28:28;;;;;;;3.93;2.10;;;-1.10;99.90;;;;;;5022692;28;20210;-74
2023/02/27 05:31:03;;;;;;;4.10;2.53;;;-1.10;99.90;;;;;;5022781;28;20201;-74
2023/02/27 05:33:33;;;;;;;4.20;1.87;;;-1.10;99.90;;;;;;5022143;28;20232;-75
2023/02/27 05:36:04;;;;;;;5.43;2.37;;;-1.20;99.90;;;;;;5022904;28;20673;-75
2023/02/27 05:38:37;;;;;;;8.07;2.63;;;-1.20;99.90;;;;;;5022058;28;20802;-75
2023/02/27 05:41:09;;;;;;;5.07;2.30;;;-1.20;99.90;;;;;;5021207;28;20369;-76
2023/02/27 05:43:42;;;;;;;6.80;2.30;;;-1.20;99.90;;;;;;5022317;28;20214;-74
2023/02/27 05:46:14;;;;;;;6.80;2.60;;;-1.20;99.90;;;;;;5022234;28;20289;-74
2023/02/27 05:48:45;;;;;;;5.27;3.63;;;-1.20;99.90;;;;;;5022344;28;20203;-73
2023/02/27 05:51:14;;;;;;;4.07;2.80;;;-1.20;99.90;;;;;;5021753;28;20230;-74
2023/02/27 05:53:45;;;;;;;6.07;2.57;;;-1.20;99.90;;;;;;5028321;28;20677;-75
2023/02/27 05:56:17;;;;;;;5.53;2.43;;;-1.20;99.90;;;;;;5041841;28;20278;-74
2023/02/27 05:58:51;;;;;;;3.70;2.40;;;-1.20;99.90;;;;;;5022087;28;20230;-74
2023/02/27 06:01:17;;;;;;;2.70;2.33;;;-1.30;99.90;;;;;;5021362;28;20277;-74
2023/02/27 06:03:44;;;;;;;7.77;3.67;;;-1.20;99.90;;;;;;5022700;28;20339;-76
2023/02/27 06:06:14;;;;;;;3.83;2.10;;;-1.30;99.90;;;;;;5021138;28;20202;-77
2023/02/27 06:08:41;;;;;;;7.07;2.90;;;-1.30;99.90;;;;;;5020915;28;20207;-75
2023/02/27 06:11:08;;;;;;;4.30;2.40;;;-1.30;99.90;;;;;;5021775;28;20315;-74
2023/02/27 06:13:35;;;;;;;5.53;2.40;;;-1.30;99.90;;;;;;5022826;28;20225;-76
2023/02/27 06:16:03;;;;;;;5.57;2.17;;;-1.30;99.90;;;;;;5020397;28;20206;-74
2023/02/27 06:18:30;;;;;;;4.40;2.23;;;-1.30;99.90;;;;;;5021460;28;20225;-73
2023/02/27 06:20:57;;;;;;;6.87;2.90;;;-1.30;99.90;;;;;;5021884;28;20194;-76
2023/02/27 06:23:24;;;;;;;6.37;2.23;;;-1.40;99.90;;;;;;5022040;28;20863;-74
2023/02/27 06:25:51;;;;;;;2.93;2.17;;;-1.30;99.90;;;;;;5021370;28;20210;-75
2023/02/27 06:28:18;;;;;;;2.63;1.93;;;-1.30;99.90;;;;;;5021702;28;20294;-76
2023/02/27 06:30:45;;;;;;;6.10;2.53;;;-1.40;99.90;;;;;;5021670;28;20213;-74
2023/02/27 06:33:13;;;;;;;7.00;2.60;;;-1.40;99.90;;;;;;5021206;28;20230;-74
2023/02/27 06:35:40;;;;;;;6.57;2.33;;;-1.40;99.90;;;;;;5021456;28;20214;-73
2023/02/27 06:38:06;;;;;;;4.43;2.50;;;-1.30;99.90;;;;;;5021418;28;20208;-73
2023/02/27 06:40:33;;;;;;;6.40;2.60;;;-1.30;99.90;;;;;;5021967;28;20206;-74
2023/02/27 06:43:00;;;;;;;6.13;2.60;;;-1.30;99.90;;;;;;5020814;28;20922;-73
2023/02/27 06:45:27;;;;;;;5.70;2.83;;;-1.20;99.90;;;;;;5021427;28;20213;-74
2023/02/27 06:47:54;;;;;;;4.57;2.17;;;-1.20;99.90;;;;;;5021622;28;20202;-76
2023/02/27 06:50:22;;;;;;;5.23;2.40;;;-1.20;99.90;;;;;;5020133;28;20231;-75
2023/02/27 06:52:49;;;;;;;5.40;2.60;;;-1.20;99.90;;;;;;5021104;28;20276;-75
2023/02/27 06:55:21;;;;;;;6.20;3.60;;;-1.10;99.90;;;;;;5021671;28;20658;-75
2023/02/27 06:57:48;;;;;;;7.10;3.33;;;-1.10;99.90;;;;;;5021203;28;20333;-74
2023/02/27 07:00:16;;;;;;;6.07;3.50;;;-1.00;99.90;;;;;;5021615;28;20203;-74
2023/02/27 07:02:43;;;;;;;11.50;4.73;;;-1.00;99.90;;;;;;5021568;28;20594;-75
2023/02/27 07:05:11;;;;;;;12.73;6.33;;;-0.90;99.90;;;;;;5020998;28;20217;-74
2023/02/27 07:07:40;;;;;;;12.90;6.60;;;-0.80;99.90;;;;;;5020932;28;20206;-76
2023/02/27 07:10:10;;;;;;;15.77;7.40;;;-0.70;99.90;;;;;;5020606;28;20203;-75
2023/02/27 07:12:36;;;;;;;17.37;8.47;;;-0.70;99.90;;;;;;5021372;28;20199;-74
2023/02/27 07:15:04;;;;;;;19.33;8.10;;;-0.60;99.90;;;;;;5021326;28;20596;-74
2023/02/27 07:17:31;;;;;;;19.67;8.43;;;-0.40;99.90;;;;;;5021175;28;20618;-76
2023/02/27 07:19:58;;;;;;;18.33;7.93;;;-0.30;99.90;;;;;;5021758;28;20213;-75
2023/02/27 07:22:26;;;;;;;15.17;7.17;;;-0.20;99.90;;;;;;5021582;28;20206;-75
2023/02/27 07:24:54;;;;;;;14.80;7.23;;;-0.10;99.90;;;;;;5020105;28;20210;-75
2023/02/27 07:27:21;;;;;;;14.70;6.37;;;0.00;99.90;;;;;;5020789;28;20210;-75
2023/02/27 07:29:48;;;;;;;13.17;5.77;;;0.00;99.90;;;;;;5021814;28;20341;-76
2023/02/27 07:32:15;;;;;;;10.37;4.70;;;0.10;99.90;;;;;;5020648;28;20210;-76
2023/02/27 07:34:42;;;;;;;7.90;4.90;;;0.20;99.90;;;;;;5022146;28;20226;-76
2023/02/27 07:37:09;;;;;;;8.50;4.80;;;0.20;99.90;;;;;;5033777;28;20665;-76
2023/02/27 07:39:36;;;;;;;11.67;4.93;;;0.30;99.90;;;;;;5020622;28;20213;-75
2023/02/27 07:42:04;;;;;;;11.73;4.57;;;0.40;99.90;;;;;;5021106;28;20606;-76
2023/02/27 07:44:31;;;;;;;9.83;4.27;;;0.40;99.90;;;;;;5021897;28;20499;-76
2023/02/27 07:46:58;;;;;;;7.93;3.60;;;0.50;99.90;;;;;;5021047;28;20209;-75
2023/02/27 07:49:25;;;;;;;9.13;3.70;;;0.60;99.90;;;;;;5020523;28;20230;-77
2023/02/27 07:51:52;;;;;;;8.17;3.20;;;0.70;99.90;;;;;;5018894;28;20676;-76
2023/02/27 07:54:19;;;;;;;8.97;3.43;;;0.70;99.90;;;;;;5020321;28;20218;-76
2023/02/27 07:56:46;;;;;;;7.97;3.23;;;0.80;99.90;;;;;;5020706;28;20207;-77
2023/02/27 07:59:14;;;;;;;8.40;3.43;;;0.80;99.90;;;;;;5020639;28;20305;-78
2023/02/27 08:01:41;;;;;;;6.83;3.63;;;0.90;99.90;;;;;;5023125;28;20206;-77
2023/02/27 08:04:08;;;;;;;7.67;3.70;;;1.00;99.90;;;;;;5043446;28;20204;-77
2023/02/27 08:06:35;;;;;;;8.67;4.30;;;1.10;99.90;;;;;;5032734;28;20214;-77
2023/02/27 08:09:41;;;;;;;7.80;3.23;;;1.20;99.90;;;;;;4992215;28;20344;-76
2023/02/27 08:12:08;;;;;;;7.10;2.93;;;1.30;99.90;;;;;;5041972;28;20263;-79
2023/02/27 08:14:36;;;;;;;8.80;4.17;;;1.50;99.90;;;;;;5041957;28;20232;-77
2023/02/27 08:17:03;;;;;;;7.17;2.30;;;1.70;99.90;;;;;;5038473;28;20289;-76
2023/02/27 08:19:30;;;;;;;10.47;3.37;;;2.00;99.90;;;;;;5040707;28;20300;-78
2023/02/27 08:21:57;;;;;;;6.37;2.13;;;2.10;99.90;;;;;;5040643;28;20205;-79
2023/02/27 08:24:24;;;;;;;3.53;1.30;;;2.30;99.90;;;;;;5037360;28;20211;-76
2023/02/27 08:26:51;;;;;;;6.27;1.60;;;2.50;99.90;;;;;;5041053;28;20220;-76
2023/02/27 08:29:18;;;;;;;3.33;1.50;;;2.60;99.90;;;;;;5042856;28;20240;-76
2023/02/27 08:31:46;;;;;;;8.20;3.60;;;2.70;99.90;;;;;;5034090;28;20203;-76
2023/02/27 08:34:13;;;;;;;4.37;1.77;;;2.80;99.90;;;;;;5024073;28;20904;-76
2023/02/27 08:36:40;;;;;;;8.20;1.80;;;3.00;99.90;;;;;;5024435;28;20230;-75
2023/02/27 08:39:08;;;;;;;5.47;1.70;;;3.10;99.90;;;;;;5024030;28;20211;-76
2023/02/27 08:41:36;;;;;;;2.87;1.37;;;3.20;99.90;;;;;;5023784;28;20234;-77
2023/02/27 08:44:03;;;;;;;3.40;1.70;;;3.20;99.90;;;;;;5023766;28;20627;-76
2023/02/27 08:46:30;;;;;;;7.07;1.40;;;3.20;99.90;;;;;;5023305;28;20720;-75
2023/02/27 08:48:58;;;;;;;3.60;1.60;;;3.40;99.90;;;;;;5023702;28;20199;-76
2023/02/27 08:51:25;;;;;;;3.43;1.57;;;3.50;99.90;;;;;;5024539;28;20607;-76
2023/02/27 08:53:53;;;;;;;2.87;1.40;;;3.60;99.90;;;;;;5023698;28;20744;-75
2023/02/27 08:56:20;;;;;;;5.43;1.53;;;3.70;99.90;;;;;;5023272;28;20444;-76
2023/02/27 08:58:47;;;;;;;4.30;1.57;;;3.90;99.90;;;;;;5023460;28;20226;-75
2023/02/27 09:01:14;;;;;;;4.83;1.60;;;3.90;99.90;;;;;;5022737;28;20298;-77
2023/02/27 09:03:41;;;;;;;6.93;2.47;;;4.10;99.90;;;;;;5023382;28;20226;-76
2023/02/27 09:06:09;;;;;;;6.27;2.07;;;4.20;99.90;;;;;;5022976;28;20994;-77
2023/02/27 09:08:36;;;;;;;5.40;1.40;;;4.30;99.90;;;;;;5023503;28;20276;-77
2023/02/27 09:11:04;;;;;;;3.43;1.50;;;4.40;99.90;;;;;;5022099;28;20197;-78
2023/02/27 09:13:31;;;;;;;5.10;1.50;;;4.50;99.90;;;;;;5022993;28;20227;-77
2023/02/27 09:15:58;;;;;;;3.37;1.23;;;4.60;99.90;;;;;;5023024;28;20246;-77
2023/02/27 09:18:25;;;;;;;8.40;1.33;;;4.70;99.90;;;;;;5022704;28;20208;-78
2023/02/27 09:20:52;;;;;;;4.93;1.17;;;4.80;99.90;;;;;;5022887;28;20202;-77
2023/02/27 09:23:20;;;;;;;5.60;1.40;;;4.90;99.90;;;;;;5023184;28;20195;-75
2023/02/27 09:25:47;;;;;;;7.80;1.53;;;4.90;99.90;;;;;;5022509;28;20221;-77
2023/02/27 09:28:14;;;;;;;5.10;1.97;;;5.00;99.90;;;;;;5022060;28;20209;-76
2023/02/27 09:30:41;;;;;;;3.43;1.23;;;5.00;95.40;;;;;;5021932;28;20218;-77
2023/02/27 09:33:07;;;;;;;5.47;1.37;;;5.10;96.90;;;;;;5022610;28;20680;-78
2023/02/27 09:35:34;;;;;;;3.67;1.27;;;5.20;69.60;;;;;;5029423;28;20803;-78
2023/02/27 09:38:01;;;;;;;3.97;1.63;;;5.30;1.00;;;;;;5040919;28;20822;-77
2023/02/27 09:40:32;;;;;;;4.33;1.20;;;5.30;1.00;;;;;;5042111;28;20820;-77
2023/02/27 09:43:03;;;;;;;5.70;1.87;;;5.40;1.00;;;;;;5041896;28;21014;-77
2023/02/27 09:45:37;;;;;;;3.23;1.20;;;5.40;1.00;;;;;;5028888;28;20221;-76
2023/02/27 09:48:08;;;;;;;2.50;1.00;;;5.50;1.00;;;;;;5022506;28;20661;-75
2023/02/27 09:50:39;;;;;;;4.53;1.20;;;5.50;1.00;;;;;;5021552;28;20766;-76
2023/02/27 09:53:10;;;;;;;2.67;1.20;;;5.60;1.00;;;;;;5021579;28;20285;-76
2023/02/27 09:55:41;;;;;;;2.53;1.17;;;5.60;1.00;;;;;;5029628;28;20209;-77
2023/02/27 09:58:23;;;;;;;1.97;1.20;;;5.70;1.00;;;;;;5041152;28;20312;-76
2023/02/27 10:00:53;;;;;;;6.23;1.47;;;5.80;1.00;;;;;;5032699;28;20216;-76
2023/02/27 10:03:37;;;;;;;3.17;1.30;;;5.80;1.00;;;;;;5041401;28;20205;-76
2023/02/27 10:06:21;;;;;;;3.33;1.20;;;5.90;99.90;;;;;;5041587;28;20200;-78
2023/02/27 10:08:57;;;;;;;5.20;1.20;;;6.00;1.00;;;;;;5041708;28;20233;-77
2023/02/27 10:11:36;;;;;;;3.33;1.13;;;6.10;46.60;;;;;;5041323;28;20613;-75
2023/02/27 10:14:14;;;;;;;4.20;1.00;;;6.10;1.00;;;;;;5041474;28;20210;-76
2023/02/27 10:16:41;;;;;;;1.67;1.00;;;6.20;1.00;;;;;;5040634;28;20212;-76
2023/02/27 10:19:14;;;;;;;3.83;1.30;;;6.20;1.00;;;;;;5040299;28;20217;-75
2023/02/27 10:21:45;;;;;;;3.70;1.20;;;6.30;1.00;;;;;;5040526;28;20194;-75
2023/02/27 10:24:22;;;;;;;2.70;1.10;;;6.40;1.00;;;;;;5040925;28;20201;-76
2023/02/27 10:26:53;;;;;;;5.23;1.23;;;6.60;99.90;;;;;;5028430;28;20537;-76
2023/02/27 10:29:26;;;;;;;4.30;1.20;;;6.70;99.90;;;;;;5020752;28;20206;-75
2023/02/27 10:31:57;;;;;;;1.90;0.93;;;6.80;99.90;;;;;;5021528;28;20202;-76
2023/02/27 10:34:27;;;;;;;3.57;1.00;;;6.90;99.90;;;;;;5027273;28;20224;-77
2023/02/27 10:36:54;;;;;;;2.80;1.43;;;6.90;99.90;;;;;;5042214;28;20293;-77
2023/02/27 10:39:22;;;;;;;2.27;1.10;;;6.90;99.90;;;;;;5041054;28;20228;-75
2023/02/27 10:41:51;;;;;;;5.43;1.60;;;6.90;99.90;;;;;;5024183;28;20203;-76
2023/02/27 10:44:18;;;;;;;2.83;1.10;;;7.00;1.00;;;;;;5021727;28;20306;-76
2023/02/27 10:46:46;;;;;;;2.47;1.40;;;7.00;99.90;;;;;;5021785;28;20313;-76
2023/02/27 10:49:15;;;;;;;4.53;1.43;;;7.20;99.90;;;;;;5020462;28;20281;-75
2023/02/27 10:51:43;;;;;;;3.67;1.70;;;7.30;1.00;;;;;;5022221;28;20197;-77
2023/02/27 10:54:31;;;;;;;3.67;1.60;;;7.40;1.00;;;;;;5022457;28;20237;-75
2023/02/27 10:57:02;;;;;;;5.67;1.17;;;7.40;1.00;;;;;;5015856;28;20222;-73
2023/02/27 10:59:32;;;;;;;1.83;0.97;;;7.40;99.90;;;;;;5021076;28;20198;-75
2023/02/27 11:02:00;;;;;;;2.00;0.80;;;7.30;1.00;;;;;;5021113;28;20199;-76
2023/02/27 11:04:32;;;;;;;4.43;1.10;;;7.40;1.00;;;;;;5020919;28;21065;-76
2023/02/27 11:07:00;;;;;;;2.93;1.17;;;7.40;1.00;;;;;;5022112;28;20195;-75
2023/02/27 11:09:31;;;;;;;3.73;1.40;;;7.30;1.00;;;;;;5019975;28;20796;-76
2023/02/27 11:12:11;;;;;;;2.97;0.63;;;7.40;1.00;;;;;;5020380;28;20284;-76
2023/02/27 11:14:49;;;;;;;2.27;0.80;;;7.50;1.00;;;;;;5020781;28;20265;-76
2023/02/27 11:17:23;;;;;;;1.80;0.60;;;7.60;1.00;;;;;;5018416;28;20201;-77
2023/02/27 11:19:50;;;;;;;1.17;0.70;;;7.70;66.70;;;;;;5032220;28;20216;-76
2023/02/27 11:22:19;;;;;;;2.07;0.70;;;7.80;37.40;;;;;;5040645;28;20201;-75
2023/02/27 11:24:46;;;;;;;1.30;0.70;;;7.80;99.90;;;;;;5035551;28;20604;-75
2023/02/27 11:27:25;;;;;;;2.20;0.70;;;7.80;99.90;;;;;;5020011;28;20639;-76
2023/02/27 11:30:00;;;;;;;2.87;0.70;;;7.80;99.90;;;;;;5020432;28;20241;-75
2023/02/27 11:32:35;;;;;;;1.13;0.60;;;7.80;99.90;;;;;;5020554;28;20578;-74
2023/02/27 11:35:04;;;;;;;1.60;0.70;;;7.90;99.90;;;;;;5021925;28;20222;-74
2023/02/27 11:37:34;;;;;;;1.67;0.90;;;7.90;99.90;;;;;;5020478;28;20226;-75
2023/02/27 11:40:12;;;;;;;1.40;0.70;;;7.90;99.90;;;;;;5038565;28;20210;-76
2023/02/27 11:42:45;;;;;;;2.73;0.80;;;7.90;99.90;;;;;;5044245;28;20205;-76
2023/02/27 11:45:29;;;;;;;2.13;0.73;;;8.00;99.90;;;;;;5034927;28;20213;-75
2023/02/27 11:48:00;;;;;;;4.13;0.70;;;8.10;99.90;;;;;;5025405;28;20190;-77
2023/02/27 11:50:55;;;;;;;1.87;0.80;;;8.20;99.90;;;;;;5025070;28;20561;-77
2023/02/27 11:53:37;;;;;;;1.53;0.90;;;8.20;99.90;;;;;;5023553;28;20489;-75
2023/02/27 11:56:08;;;;;;;1.73;0.70;;;8.30;99.90;;;;;;5023010;28;20538;-76
2023/02/27 11:58:42;;;;;;;1.20;0.60;;;8.30;99.90;;;;;;5023450;28;20329;-79
2023/02/27 12:01:18;;;;;;;1.03;0.57;;;8.30;99.90;;;;;;5021531;28;20675;-75
2023/02/27 12:03:52;;;;;;;3.10;1.23;;;8.20;99.90;;;;;;5033352;28;20220;-76
2023/02/27 12:06:22;;;;;;;2.53;0.77;;;8.30;99.90;;;;;;5041561;28;20220;-75
2023/02/27 12:08:53;;;;;;;1.80;0.60;;;8.30;99.90;;;;;;5044130;28;20244;-77
2023/02/27 12:11:26;;;;;;;2.37;0.90;;;8.30;99.90;;;;;;5037648;28;20557;-75
2023/02/27 12:13:59;;;;;;;1.00;0.67;;;8.40;99.90;;;;;;5023616;28;20195;-75
2023/02/27 12:16:31;;;;;;;1.30;0.90;;;8.50;99.90;;;;;;5024430;28;20214;-76
2023/02/27 12:19:06;;;;;;;2.43;0.87;;;8.70;99.90;;;;;;5022472;28;20226;-75
2023/02/27 12:21:38;;;;;;;1.20;0.73;;;8.80;99.90;;;;;;5023615;28;20289;-77
2023/02/27 12:24:14;;;;;;;1.23;0.70;;;8.80;99.90;;;;;;5023978;28;20778;-76
2023/02/27 12:26:44;;;;;;;2.20;0.73;;;8.90;99.90;;;;;;5023570;28;20352;-75
2023/02/27 12:29:18;;;;;;;1.97;0.73;;;9.10;99.90;;;;;;5024215;28;20213;-73
2023/02/27 12:31:50;;;;;;;1.70;0.83;;;9.10;99.90;;;;;;5023958;28;20218;-75
2023/02/27 12:34:25;;;;;;;1.80;0.73;;;9.00;99.90;;;;;;5023511;28;20203;-75
2023/02/27 12:36:53;;;;;;;1.20;0.97;;;9.10;99.90;;;;;;5022847;28;20233;-76
2023/02/27 12:39:22;;;;;;;1.67;0.70;;;9.20;99.90;;;;;;5022732;28;20205;-75
2023/02/27 12:42:17;;;;;;;4.07;1.47;;;9.20;99.90;;;;;;5022564;28;20338;-76
2023/02/27 12:45:22;;;;;;;1.83;0.83;;;9.10;99.90;;;;;;5012525;28;20206;-74
2023/02/27 12:47:58;;;;;;;1.80;0.73;;;9.20;99.90;;;;;;5022351;28;20197;-75
2023/02/27 12:50:29;;;;;;;3.90;1.23;;;9.40;99.90;;;;;;5023412;28;20851;-75
2023/02/27 12:53:04;;;;;;;3.73;1.37;;;9.30;99.90;;;;;;5023678;28;20198;-76
2023/02/27 12:55:33;;;;;;;2.07;1.33;;;9.10;99.90;;;;;;5023040;28;20721;-75
2023/02/27 12:58:21;;;;;;;2.07;0.80;;;9.00;99.90;;;;;;5023263;28;20226;-76
2023/02/27 13:00:53;;;;;;;1.40;0.70;;;8.90;99.90;;;;;;5023675;28;20198;-73
2023/02/27 13:03:24;;;;;;;1.50;0.70;;;8.70;99.90;;;;;;5023536;28;20207;-74
2023/02/27 13:06:00;;;;;;;3.00;1.00;;;8.40;99.90;;;;;;5023667;28;20186;-75
2023/02/27 13:08:59;;;;;;;4.17;1.50;;;8.20;99.90;;;;;;5023337;28;20209;-75
2023/02/27 13:11:42;;;;;;;2.27;1.13;;;8.00;99.90;;;;;;5004302;28;20214;-75
2023/02/27 13:14:16;;;;;;;3.17;1.43;;;7.90;99.90;;;;;;5030314;28;20297;-74
2023/02/27 13:16:50;;;;;;;2.43;1.43;;;7.90;99.90;;;;;;5041105;28;20194;-77